Faxon, Pennsylvania
Current Conditions -  °F | °C
As of 10:54 AM on Saturday 25 Oct 2014 (Local Time) from KIPT Reporting Station
Scattered Clouds Scattered Clouds  
Wind Chill: 54°   Ceiling: Unl
Heat Index: 54°   Visibility: 10mi
Dew Point: 41°   Wind: 6mph
Humidity: 62%   Direction: 250°WSW
Pressure: 29.86"   Gusts: NA
Location:  41.246°N, 77.0167°W
Report Text: KIPT 251454Z 25005KT 10SM SCT050 12/05 A2986 RMK AO2 SLP113 T01220050 58017
Loading
Personal Weather Stations






























Interactive Weather Map
Tropical Storm Tracking
New forecast layout! Learn more

10-Day Weather Forecast

Advertisements
Track Severe Weather on mobile